createdAt,value
2023-09-25T00:01:26.158Z,101708.72
2023-09-25T00:03:52.690Z,101714.50
2023-09-25T00:06:19.619Z,101709.63
2023-09-25T00:08:46.172Z,101710.78
2023-09-25T00:11:12.598Z,101714.25
2023-09-25T00:13:39.074Z,101715.53
2023-09-25T00:16:06.169Z,101709.69
2023-09-25T00:18:32.836Z,101708.00
2023-09-25T00:20:59.371Z,101706.78
2023-09-25T00:23:25.732Z,101703.69
2023-09-25T00:25:52.216Z,101709.25
2023-09-25T00:28:18.752Z,101711.50
2023-09-25T00:30:45.562Z,101705.78
2023-09-25T00:33:12.219Z,101713.69
2023-09-25T00:35:42.351Z,101712.84
2023-09-25T00:38:08.792Z,101718.97
2023-09-25T00:40:37.286Z,101718.97
2023-09-25T00:43:05.317Z,101714.16
2023-09-25T00:45:31.932Z,101714.38
2023-09-25T00:47:59.047Z,101708.19
2023-09-25T00:50:30.753Z,101700.41
2023-09-25T00:52:59.690Z,101696.81
2023-09-25T00:55:26.144Z,101700.31
2023-09-25T00:57:53.818Z,101694.22
2023-09-25T01:00:20.456Z,101696.06
2023-09-25T01:02:48.200Z,101693.56
2023-09-25T01:05:14.758Z,101689.94
2023-09-25T01:07:41.395Z,101693.41
2023-09-25T01:10:16.096Z,101704.22
2023-09-25T01:12:43.537Z,101700.31
2023-09-25T01:15:10.995Z,101694.41
2023-09-25T01:17:37.675Z,101697.84
2023-09-25T01:20:14.582Z,101695.03
2023-09-25T01:22:42.102Z,101693.44
2023-09-25T01:25:11.658Z,101689.09
2023-09-25T01:27:43.483Z,101686.25
2023-09-25T01:30:12.415Z,101685.81
2023-09-25T01:32:40.440Z,101683.22
2023-09-25T01:35:15.261Z,101687.47
2023-09-25T01:37:47.589Z,101684.31
2023-09-25T01:40:14.986Z,101693.22
2023-09-25T01:42:41.792Z,101683.69
2023-09-25T01:45:12.413Z,101688.25
2023-09-25T01:47:41.012Z,101691.94
2023-09-25T01:50:11.070Z,101687.78
2023-09-25T01:52:37.485Z,101685.94
2023-09-25T01:55:04.702Z,101687.78
2023-09-25T01:57:34.987Z,101688.00
2023-09-25T02:00:01.341Z,101685.22
2023-09-25T02:02:27.935Z,101677.94
2023-09-25T02:04:54.429Z,101680.03
2023-09-25T02:07:22.612Z,101683.81
2023-09-25T02:09:48.965Z,101686.22
2023-09-25T02:12:15.419Z,101684.03
2023-09-25T02:14:41.820Z,101687.66
2023-09-25T02:17:08.174Z,101684.09
2023-09-25T02:19:34.556Z,101685.06
2023-09-25T02:22:00.890Z,101682.69
2023-09-25T02:24:27.282Z,101677.56
2023-09-25T02:26:53.639Z,101673.00
2023-09-25T02:29:21.547Z,101667.81
2023-09-25T02:31:48.067Z,101665.81
2023-09-25T02:34:15.620Z,101666.69
2023-09-25T02:36:42.404Z,101663.94
2023-09-25T02:39:10.899Z,101664.94
2023-09-25T02:41:37.573Z,101656.28
2023-09-25T02:44:04.068Z,101664.44
2023-09-25T02:46:30.653Z,101660.69
2023-09-25T02:48:57.190Z,101665.28
2023-09-25T02:51:23.747Z,101660.13
2023-09-25T02:53:51.830Z,101654.81
2023-09-25T02:56:18.316Z,101655.53
2023-09-25T02:58:45.202Z,101653.34
2023-09-25T03:01:11.708Z,101655.63
2023-09-25T03:03:40.010Z,101655.94
2023-09-25T03:06:06.439Z,101662.88
2023-09-25T03:08:32.795Z,101670.34
2023-09-25T03:10:59.142Z,101678.44
2023-09-25T03:13:25.551Z,101683.16
2023-09-25T03:15:52.027Z,101688.34
2023-09-25T03:18:18.512Z,101692.09
2023-09-25T03:20:44.980Z,101691.38
2023-09-25T03:23:11.379Z,101699.34
2023-09-25T03:25:38.552Z,101698.41
2023-09-25T03:28:04.981Z,101709.91
2023-09-25T03:30:31.349Z,101713.56
2023-09-25T03:32:57.959Z,101706.78
2023-09-25T03:35:24.415Z,101703.75
2023-09-25T03:37:51.091Z,101700.34
2023-09-25T03:40:17.468Z,101707.41
2023-09-25T03:42:44.020Z,101718.84
2023-09-25T03:45:10.774Z,101715.16
2023-09-25T03:47:37.373Z,101718.16
2023-09-25T03:50:04.419Z,101723.63
2023-09-25T03:52:30.854Z,101726.31
2023-09-25T03:54:57.189Z,101735.09
2023-09-25T03:57:23.757Z,101729.81
2023-09-25T03:59:51.427Z,101732.44
2023-09-25T04:02:17.792Z,101736.06
2023-09-25T04:04:44.170Z,101734.28
2023-09-25T04:07:10.596Z,101740.50
2023-09-25T04:09:37.093Z,101744.13
2023-09-25T04:12:06.475Z,101743.25
2023-09-25T04:14:36.771Z,101748.69
2023-09-25T04:17:03.322Z,101748.66
2023-09-25T04:19:30.008Z,101752.03
2023-09-25T04:21:56.442Z,101749.25
2023-09-25T04:24:22.928Z,101757.22
2023-09-25T04:26:49.315Z,101760.72
2023-09-25T04:29:19.022Z,101764.22
2023-09-25T04:31:47.588Z,101761.50
2023-09-25T04:34:14.078Z,101757.06
2023-09-25T04:36:40.477Z,101759.44
2023-09-25T04:39:11.336Z,101755.88
2023-09-25T04:41:38.204Z,101753.97
2023-09-25T04:44:05.792Z,101756.44
2023-09-25T04:46:32.545Z,101751.84
2023-09-25T04:49:01.274Z,101752.75
2023-09-25T04:51:27.875Z,101754.31
2023-09-25T04:53:54.362Z,101750.09
2023-09-25T04:56:22.189Z,101753.41
2023-09-25T04:58:49.116Z,101760.31
2023-09-25T05:01:15.775Z,101768.38
2023-09-25T05:03:42.271Z,101765.06
2023-09-25T05:06:13.661Z,101768.34
2023-09-25T05:08:40.341Z,101774.78
2023-09-25T05:11:08.241Z,101777.63
2023-09-25T05:13:35.286Z,101782.19
2023-09-25T05:16:03.159Z,101778.09
2023-09-25T05:18:30.759Z,101782.72
2023-09-25T05:20:58.413Z,101774.13
2023-09-25T05:23:25.505Z,101776.78
2023-09-25T05:25:51.928Z,101781.19
2023-09-25T05:28:18.308Z,101783.81
2023-09-25T05:30:44.747Z,101794.53
2023-09-25T05:33:11.284Z,101791.97
2023-09-25T05:35:37.686Z,101797.22
2023-09-25T05:38:04.337Z,101797.16
2023-09-25T05:40:30.740Z,101792.75
2023-09-25T05:42:57.243Z,101783.03
2023-09-25T05:45:23.937Z,101792.50
2023-09-25T05:47:50.469Z,101794.97
2023-09-25T05:50:17.400Z,101798.34
2023-09-25T05:52:43.949Z,101802.59
2023-09-25T05:55:11.566Z,101799.88
2023-09-25T05:57:38.733Z,101801.59
2023-09-25T06:00:13.429Z,101792.63
2023-09-25T06:02:41.458Z,101795.94
2023-09-25T06:05:08.273Z,101801.00
2023-09-25T06:07:36.272Z,101795.44
2023-09-25T06:10:05.484Z,101801.53
2023-09-25T06:12:32.678Z,101797.25
2023-09-25T06:14:59.117Z,101805.72
2023-09-25T06:17:28.019Z,101808.31
2023-09-25T06:19:55.282Z,101798.47
2023-09-25T06:22:22.660Z,101804.75
2023-09-25T06:24:50.134Z,101807.28
2023-09-25T06:27:16.645Z,101807.69
2023-09-25T06:29:46.122Z,101807.56
2023-09-25T06:32:12.703Z,101799.56
2023-09-25T06:34:40.462Z,101800.28
2023-09-25T06:37:07.065Z,101799.47
2023-09-25T06:39:34.856Z,101800.22
2023-09-25T06:42:01.428Z,101800.78
2023-09-25T06:44:27.851Z,101807.84
2023-09-25T06:46:54.257Z,101805.25
2023-09-25T06:49:20.857Z,101808.53
2023-09-25T06:51:49.109Z,101817.06
2023-09-25T06:54:15.626Z,101813.41
2023-09-25T06:56:42.007Z,101813.06
2023-09-25T06:59:08.449Z,101813.50
2023-09-25T07:01:35.036Z,101799.97
2023-09-25T07:04:01.922Z,101809.56
2023-09-25T07:06:28.477Z,101805.00
2023-09-25T07:08:54.864Z,101810.91
2023-09-25T07:11:21.226Z,101813.38
2023-09-25T07:13:48.770Z,101816.72
2023-09-25T07:16:15.349Z,101819.94
2023-09-25T07:18:41.829Z,101814.75
2023-09-25T07:21:08.340Z,101818.22
2023-09-25T07:23:34.776Z,101810.81
2023-09-25T07:26:06.226Z,101804.44
2023-09-25T07:28:32.811Z,101797.88
2023-09-25T07:31:01.808Z,101793.81
2023-09-25T07:33:30.184Z,101801.53
2023-09-25T07:35:57.504Z,101796.88
2023-09-25T07:38:24.195Z,101801.53
2023-09-25T07:41:00.041Z,101787.72
2023-09-25T07:43:42.181Z,101791.38
2023-09-25T07:46:13.602Z,101793.59
2023-09-25T07:48:40.120Z,101793.72
2023-09-25T07:51:08.216Z,101788.41
2023-09-25T07:53:35.514Z,101796.63
2023-09-25T07:56:02.421Z,101787.97
2023-09-25T07:58:29.013Z,101784.75
2023-09-25T08:01:01.638Z,101781.22
2023-09-25T08:03:28.339Z,101782.31
2023-09-25T08:05:55.300Z,101784.25
2023-09-25T08:08:21.727Z,101783.66
2023-09-25T08:10:49.032Z,101782.13
2023-09-25T08:13:17.389Z,101777.31
2023-09-25T08:15:43.902Z,101773.03
2023-09-25T08:18:10.416Z,101777.09
2023-09-25T08:20:37.322Z,101768.88
2023-09-25T08:23:04.948Z,101770.34
2023-09-25T08:25:31.748Z,101770.22
2023-09-25T08:27:58.616Z,101765.16
2023-09-25T08:30:25.113Z,101759.69
2023-09-25T08:32:51.900Z,101762.22
2023-09-25T08:35:18.403Z,101768.06
2023-09-25T08:37:44.972Z,101759.69
2023-09-25T08:40:11.941Z,101752.13
2023-09-25T08:42:39.049Z,101747.53
2023-09-25T08:45:06.680Z,101745.31
2023-09-25T08:47:35.410Z,101735.34
2023-09-25T08:50:02.872Z,101741.00
2023-09-25T08:52:29.683Z,101743.22
2023-09-25T08:54:56.293Z,101733.28
2023-09-25T08:57:23.848Z,101730.38
2023-09-25T08:59:51.634Z,101738.16
2023-09-25T09:02:18.662Z,101733.25
2023-09-25T09:04:46.282Z,101734.31
2023-09-25T09:07:15.396Z,101730.81
2023-09-25T09:09:44.256Z,101736.44
2023-09-25T09:12:11.550Z,101748.50
2023-09-25T09:14:39.904Z,101750.06
2023-09-25T09:17:07.284Z,101747.28
2023-09-25T09:19:39.904Z,101746.81
2023-09-25T09:22:08.052Z,101740.75
2023-09-25T09:24:37.952Z,101738.47
2023-09-25T09:27:10.324Z,101735.34
2023-09-25T09:29:44.173Z,101734.47
2023-09-25T09:32:12.226Z,101725.00
2023-09-25T09:34:42.095Z,101724.44
2023-09-25T09:37:11.597Z,101712.06
2023-09-25T09:39:38.517Z,101708.81
2023-09-25T09:42:06.724Z,101714.81
2023-09-25T09:44:33.822Z,101701.44
2023-09-25T09:47:05.605Z,101708.91
2023-09-25T09:49:35.902Z,101709.19
2023-09-25T09:52:03.976Z,101702.81
2023-09-25T09:54:34.746Z,101703.53
2023-09-25T09:57:02.900Z,101698.66
2023-09-25T09:59:29.454Z,101705.19
2023-09-25T10:01:58.786Z,101702.47
2023-09-25T10:04:27.688Z,101700.81
2023-09-25T10:06:59.847Z,101700.75
2023-09-25T10:09:27.558Z,101700.56
2023-09-25T10:11:55.832Z,101694.34
2023-09-25T10:14:24.968Z,101693.56
2023-09-25T10:17:12.264Z,101688.88
2023-09-25T10:19:39.026Z,101694.31
2023-09-25T10:22:13.675Z,101680.56
2023-09-25T10:24:42.909Z,101686.97
2023-09-25T10:27:14.509Z,101687.16
2023-09-25T10:30:00.832Z,101682.53
2023-09-25T10:32:31.693Z,101683.00
2023-09-25T10:34:58.109Z,101686.91
2023-09-25T10:37:24.506Z,101688.72
2023-09-25T10:39:57.725Z,101683.75
2023-09-25T10:42:24.150Z,101685.09
2023-09-25T10:44:50.501Z,101686.50
2023-09-25T10:47:16.893Z,101688.22
2023-09-25T10:49:43.866Z,101688.22
2023-09-25T10:52:10.221Z,101676.41
2023-09-25T10:54:36.687Z,101666.75
2023-09-25T10:57:03.813Z,101675.44
2023-09-25T10:59:30.630Z,101674.22
2023-09-25T11:01:57.342Z,101669.59
2023-09-25T11:04:23.830Z,101669.38
2023-09-25T11:06:50.514Z,101660.16
2023-09-25T11:09:18.542Z,101664.38
2023-09-25T11:11:47.929Z,101655.13
2023-09-25T11:14:14.569Z,101642.97
2023-09-25T11:16:41.479Z,101649.34
2023-09-25T11:19:15.456Z,101651.84
2023-09-25T11:21:46.831Z,101644.03
2023-09-25T11:24:13.369Z,101644.00
2023-09-25T11:26:41.392Z,101641.19
2023-09-25T11:29:12.178Z,101637.72
2023-09-25T11:31:59.376Z,101640.56
2023-09-25T11:34:26.414Z,101626.91
2023-09-25T11:36:52.993Z,101624.78
2023-09-25T11:39:19.517Z,101622.13
2023-09-25T11:41:46.669Z,101629.38
2023-09-25T11:44:13.827Z,101623.16
2023-09-25T11:46:42.953Z,101621.38
2023-09-25T11:49:09.613Z,101619.66
2023-09-25T11:51:36.605Z,101620.47
2023-09-25T11:54:06.593Z,101618.94
2023-09-25T11:56:33.809Z,101622.50
2023-09-25T11:59:01.446Z,101620.06
2023-09-25T12:01:28.134Z,101616.75
2023-09-25T12:03:55.020Z,101617.75
2023-09-25T12:06:25.334Z,101622.28
2023-09-25T12:08:52.378Z,101614.59
2023-09-25T12:11:18.845Z,101613.72
2023-09-25T12:13:46.077Z,101611.69
2023-09-25T12:16:12.834Z,101615.00
2023-09-25T12:18:39.401Z,101616.53
2023-09-25T12:21:08.322Z,101616.97
2023-09-25T12:23:35.659Z,101615.44
2023-09-25T12:26:02.249Z,101618.25
2023-09-25T12:28:30.313Z,101611.41
2023-09-25T12:30:57.828Z,101620.34
2023-09-25T12:33:24.479Z,101626.75
2023-09-25T12:35:50.956Z,101626.50
2023-09-25T12:38:17.347Z,101620.19
2023-09-25T12:40:43.694Z,101621.63
2023-09-25T12:43:10.166Z,101621.81
2023-09-25T12:45:36.689Z,101632.91
2023-09-25T12:48:03.332Z,101617.06
2023-09-25T12:50:31.530Z,101625.06
2023-09-25T12:52:59.416Z,101619.31
2023-09-25T12:55:26.217Z,101622.13
2023-09-25T12:57:53.697Z,101615.03
2023-09-25T13:00:20.043Z,101613.31
2023-09-25T13:02:48.595Z,101612.72
2023-09-25T13:05:17.055Z,101602.78
2023-09-25T13:07:43.584Z,101603.97
2023-09-25T13:10:11.179Z,101602.47
2023-09-25T13:12:37.692Z,101599.94
2023-09-25T13:15:05.224Z,101600.84
2023-09-25T13:17:31.838Z,101601.97
2023-09-25T13:20:00.267Z,101605.75
2023-09-25T13:22:35.512Z,101607.50
2023-09-25T13:25:03.757Z,101603.34
2023-09-25T13:27:30.326Z,101596.25
2023-09-25T13:29:56.768Z,101591.84
2023-09-25T13:32:23.221Z,101595.00
2023-09-25T13:34:49.612Z,101584.28
2023-09-25T13:37:17.118Z,101587.09
2023-09-25T13:39:43.839Z,101583.78
2023-09-25T13:42:12.506Z,101586.97
2023-09-25T13:44:38.852Z,101585.72
2023-09-25T13:47:05.799Z,101572.06
2023-09-25T13:49:32.235Z,101580.88
2023-09-25T13:51:58.727Z,101591.09
2023-09-25T13:54:25.245Z,101585.34
2023-09-25T13:56:51.737Z,101591.38
2023-09-25T13:59:18.794Z,101592.81
2023-09-25T14:01:48.153Z,101595.50
2023-09-25T14:04:15.189Z,101595.59
2023-09-25T14:06:42.971Z,101610.63
2023-09-25T14:09:10.114Z,101603.13
2023-09-25T14:11:36.982Z,101606.25
2023-09-25T14:14:03.775Z,101598.16
2023-09-25T14:16:33.616Z,101602.22
2023-09-25T14:19:00.059Z,101598.41
2023-09-25T14:21:26.661Z,101605.53
2023-09-25T14:23:53.279Z,101597.97
2023-09-25T14:26:19.708Z,101602.22
2023-09-25T14:28:46.217Z,101595.63
2023-09-25T14:31:12.912Z,101592.56
2023-09-25T14:33:40.559Z,101597.72
2023-09-25T14:36:08.037Z,101604.41
2023-09-25T14:38:34.964Z,101598.09
2023-09-25T14:41:02.518Z,101591.72
2023-09-25T14:43:29.450Z,101596.97
2023-09-25T14:45:55.942Z,101597.97
2023-09-25T14:48:22.378Z,101589.09
2023-09-25T14:50:48.838Z,101582.44
2023-09-25T14:53:15.333Z,101573.88
2023-09-25T14:55:56.192Z,101581.75
2023-09-25T14:58:24.186Z,101576.19
2023-09-25T15:00:59.944Z,101582.34
2023-09-25T15:03:27.707Z,101583.34
2023-09-25T15:05:55.027Z,101581.47
2023-09-25T15:08:24.477Z,101588.56
2023-09-25T15:10:51.757Z,101589.47
2023-09-25T15:13:18.116Z,101595.38
2023-09-25T15:15:44.536Z,101592.47
2023-09-25T15:18:10.949Z,101592.34
2023-09-25T15:20:37.427Z,101593.03
2023-09-25T15:23:03.968Z,101597.34
2023-09-25T15:25:31.468Z,101596.91
2023-09-25T15:27:58.034Z,101597.38
2023-09-25T15:30:24.557Z,101601.88
2023-09-25T15:32:51.008Z,101595.44
2023-09-25T15:35:17.387Z,101598.00
2023-09-25T15:37:43.776Z,101598.69
2023-09-25T15:40:10.447Z,101593.09
2023-09-25T15:42:37.007Z,101593.72
2023-09-25T15:45:03.991Z,101593.22
2023-09-25T15:47:30.540Z,101593.59
2023-09-25T15:49:56.961Z,101598.44
2023-09-25T15:52:23.321Z,101588.59
2023-09-25T15:54:49.789Z,101589.03
2023-09-25T15:57:16.398Z,101592.44
2023-09-25T15:59:42.951Z,101584.50
2023-09-25T16:02:09.530Z,101591.56
2023-09-25T16:04:36.341Z,101591.28
2023-09-25T16:07:04.081Z,101604.34
2023-09-25T16:09:30.752Z,101595.53
2023-09-25T16:11:59.312Z,101595.47
2023-09-25T16:14:25.931Z,101588.94
2023-09-25T16:16:52.318Z,101590.88
2023-09-25T16:19:19.420Z,101589.91
2023-09-25T16:21:45.853Z,101595.69
2023-09-25T16:24:12.367Z,101593.63
2023-09-25T16:26:38.775Z,101594.50
2023-09-25T16:29:05.121Z,101591.19
2023-09-25T16:31:32.098Z,101592.44
2023-09-25T16:33:58.637Z,101593.94
2023-09-25T16:36:25.054Z,101591.28
2023-09-25T16:38:51.795Z,101586.47
2023-09-25T16:41:18.191Z,101596.28
2023-09-25T16:43:44.570Z,101601.19
2023-09-25T16:46:11.121Z,101602.22
2023-09-25T16:48:38.023Z,101604.06
2023-09-25T16:51:06.610Z,101602.22
2023-09-25T16:53:32.999Z,101606.72
2023-09-25T16:56:01.257Z,101608.66
2023-09-25T16:58:27.994Z,101612.13
2023-09-25T17:00:54.614Z,101603.06
2023-09-25T17:03:21.163Z,101612.91
2023-09-25T17:05:47.628Z,101601.28
2023-09-25T17:08:14.239Z,101602.75
2023-09-25T17:10:42.237Z,101607.78
2023-09-25T17:13:10.246Z,101607.94
2023-09-25T17:15:40.119Z,101613.53
2023-09-25T17:18:07.715Z,101608.59
2023-09-25T17:20:34.831Z,101603.63
2023-09-25T17:23:01.423Z,101606.69
2023-09-25T17:25:27.990Z,101602.50
2023-09-25T17:27:54.536Z,101602.59
2023-09-25T17:30:22.440Z,101603.25
2023-09-25T17:32:49.712Z,101601.13
2023-09-25T17:35:16.950Z,101605.50
2023-09-25T17:37:44.539Z,101598.41
2023-09-25T17:40:11.529Z,101600.03
2023-09-25T17:42:37.998Z,101599.44
2023-09-25T17:45:06.175Z,101603.69
2023-09-25T17:47:35.096Z,101612.06
2023-09-25T17:50:01.623Z,101611.13
2023-09-25T17:52:28.116Z,101616.56
2023-09-25T17:54:54.570Z,101615.44
2023-09-25T17:57:21.508Z,101618.81
2023-09-25T17:59:47.950Z,101628.09
2023-09-25T18:02:15.503Z,101622.16
2023-09-25T18:04:44.329Z,101630.94
2023-09-25T18:07:10.826Z,101631.28
2023-09-25T18:09:37.233Z,101631.16
2023-09-25T18:12:03.945Z,101629.00
2023-09-25T18:14:30.317Z,101629.31
2023-09-25T18:16:56.840Z,101643.22
2023-09-25T18:19:23.187Z,101641.28
2023-09-25T18:21:49.599Z,101641.91
2023-09-25T18:24:16.566Z,101631.25
2023-09-25T18:26:43.211Z,101640.97
2023-09-25T18:29:09.582Z,101640.13
2023-09-25T18:31:36.010Z,101647.56
2023-09-25T18:34:02.553Z,101643.66
2023-09-25T18:36:28.993Z,101638.56
2023-09-25T18:38:55.461Z,101643.97
2023-09-25T18:41:21.839Z,101644.13
2023-09-25T18:43:48.429Z,101644.00
2023-09-25T18:46:15.105Z,101648.00
2023-09-25T18:48:41.644Z,101642.06
2023-09-25T18:51:08.060Z,101655.28
2023-09-25T18:53:34.518Z,101663.50
2023-09-25T18:56:01.335Z,101656.72
2023-09-25T18:58:27.698Z,101662.53
2023-09-25T19:00:55.366Z,101656.56
2023-09-25T19:03:22.477Z,101661.00
2023-09-25T19:05:51.056Z,101662.47
2023-09-25T19:08:20.907Z,101659.31
2023-09-25T19:10:47.471Z,101662.59
2023-09-25T19:13:30.073Z,101677.41
2023-09-25T19:16:01.301Z,101670.09
2023-09-25T19:18:28.551Z,101670.34
2023-09-25T19:20:55.075Z,101674.09
2023-09-25T19:23:21.531Z,101680.13
2023-09-25T19:25:48.001Z,101683.50
2023-09-25T19:28:14.607Z,101685.31
2023-09-25T19:30:41.044Z,101681.78
2023-09-25T19:33:07.613Z,101689.94
2023-09-25T19:35:34.163Z,101686.78
2023-09-25T19:38:00.551Z,101683.00
2023-09-25T19:40:26.969Z,101694.88
2023-09-25T19:42:53.432Z,101696.66
2023-09-25T19:45:20.010Z,101699.56
2023-09-25T19:47:46.397Z,101698.78
2023-09-25T19:50:12.849Z,101698.13
2023-09-25T19:52:39.631Z,101705.16
2023-09-25T19:55:06.354Z,101704.72
2023-09-25T19:57:32.720Z,101705.03
2023-09-25T19:59:59.167Z,101714.19
2023-09-25T20:02:25.915Z,101717.13
2023-09-25T20:04:52.363Z,101712.59
2023-09-25T20:07:18.849Z,101709.31
2023-09-25T20:09:45.351Z,101705.72
2023-09-25T20:12:11.765Z,101703.34
2023-09-25T20:14:38.184Z,101705.31
2023-09-25T20:17:04.709Z,101712.22
2023-09-25T20:19:31.256Z,101712.34
2023-09-25T20:21:57.734Z,101716.16
2023-09-25T20:24:24.135Z,101718.28
2023-09-25T20:26:50.490Z,101713.56
2023-09-25T20:29:16.850Z,101716.97
2023-09-25T20:31:43.463Z,101713.88
2023-09-25T20:34:10.028Z,101712.06
2023-09-25T20:36:36.460Z,101713.06
2023-09-25T20:39:03.004Z,101716.19
2023-09-25T20:41:29.458Z,101709.75
2023-09-25T20:43:55.856Z,101713.44
2023-09-25T20:46:22.323Z,101707.09
2023-09-25T20:48:50.680Z,101705.31
2023-09-25T20:51:18.499Z,101700.28
2023-09-25T20:53:45.074Z,101715.63
2023-09-25T20:56:11.451Z,101713.88
2023-09-25T20:58:37.895Z,101711.25
2023-09-25T21:01:04.392Z,101706.09
2023-09-25T21:03:30.927Z,101700.59
2023-09-25T21:05:57.595Z,101703.41
2023-09-25T21:08:24.978Z,101696.00
2023-09-25T21:10:52.621Z,101702.38
2023-09-25T21:13:19.352Z,101697.28
2023-09-25T21:15:45.826Z,101704.50
2023-09-25T21:18:12.649Z,101697.66
2023-09-25T21:20:39.481Z,101694.78
2023-09-25T21:23:06.187Z,101697.47
2023-09-25T21:25:32.693Z,101696.81
2023-09-25T21:27:59.119Z,101686.13
2023-09-25T21:30:25.619Z,101688.88
2023-09-25T21:32:52.086Z,101680.06
2023-09-25T21:35:18.667Z,101685.19
2023-09-25T21:37:45.028Z,101695.19
2023-09-25T21:40:12.355Z,101697.50
2023-09-25T21:42:38.942Z,101698.91
2023-09-25T21:45:05.952Z,101702.72
2023-09-25T21:47:32.323Z,101700.69
2023-09-25T21:49:58.719Z,101700.28
2023-09-25T21:52:26.139Z,101708.25
2023-09-25T21:54:52.570Z,101702.19
2023-09-25T21:57:18.947Z,101704.03
2023-09-25T21:59:48.829Z,101701.88
2023-09-25T22:02:15.260Z,101697.88
2023-09-25T22:04:41.642Z,101705.19
2023-09-25T22:07:08.206Z,101705.44
2023-09-25T22:09:34.656Z,101704.53
2023-09-25T22:12:01.028Z,101703.91
2023-09-25T22:14:29.514Z,101699.38
2023-09-25T22:16:56.128Z,101695.84
2023-09-25T22:19:23.388Z,101690.63
2023-09-25T22:21:50.176Z,101688.78
2023-09-25T22:24:16.728Z,101683.19
2023-09-25T22:26:43.738Z,101685.41
2023-09-25T22:29:10.376Z,101675.84
2023-09-25T22:31:37.053Z,101675.53
2023-09-25T22:34:03.434Z,101678.53
2023-09-25T22:36:29.847Z,101681.28
2023-09-25T22:38:56.526Z,101678.66
2023-09-25T22:41:23.575Z,101677.13
2023-09-25T22:43:50.184Z,101682.69
2023-09-25T22:46:16.898Z,101677.72
2023-09-25T22:48:43.470Z,101672.88
2023-09-25T22:51:10.019Z,101676.84
2023-09-25T22:53:36.526Z,101674.34
2023-09-25T22:56:03.199Z,101675.59
2023-09-25T22:58:30.660Z,101668.59
2023-09-25T23:00:57.125Z,101668.75
2023-09-25T23:03:24.394Z,101665.13
2023-09-25T23:05:50.862Z,101667.94
2023-09-25T23:08:17.446Z,101670.88
2023-09-25T23:10:43.819Z,101667.53
2023-09-25T23:13:10.255Z,101670.03
2023-09-25T23:15:36.888Z,101668.38
2023-09-25T23:18:03.580Z,101674.91
2023-09-25T23:20:30.608Z,101673.38
2023-09-25T23:22:57.391Z,101667.38
2023-09-25T23:25:25.702Z,101666.53
2023-09-25T23:27:53.122Z,101661.09
2023-09-25T23:30:20.457Z,101669.94
2023-09-25T23:32:49.306Z,101669.81
2023-09-25T23:35:17.022Z,101675.38
2023-09-25T23:37:45.045Z,101670.47
2023-09-25T23:40:16.188Z,101672.09
2023-09-25T23:42:43.210Z,101671.34
2023-09-25T23:45:12.456Z,101670.38
2023-09-25T23:47:38.929Z,101672.94
2023-09-25T23:50:08.935Z,101670.63
2023-09-25T23:52:36.600Z,101663.78
2023-09-25T23:55:05.213Z,101666.44
2023-09-25T23:57:32.322Z,101658.53
